Latest Coastal Weather Observations for Minlaton Airport

IDS60701

Issued at 1:11 pm CST Sunday 25 September 2016 (issued every 10 minutes, with the page automatically refreshed every 10 minutes)

About coastal observations | Map of coastal stations | Coastal observations for SA | Marine services | Other Formats
Station Details ID: 022031 Name: MINLATON AERO Lat: -34.75 Lon: 137.53 Height: 32.0 m
Data from the previous 72 hours. | See also: Recent months at Minlaton Airport
Date/Time
CST
Temp
°C
Wind Pressure Rain since
9am
mm
Weather Cloud Vis
km
Sea
Height
m
Swell
Dir  Spd
kts
Gust
kts
hPa Trend Height
m
Period
s
Dir
25/01:00pm 15.5 NW 13 19 1014.9 - 0.0 - - - - - - -
25/12:30pm 15.5 NW 11 16 1015.0 - 0.0 - - - - - - -
25/12:00pm 15.8 WNW 11 17 1015.4 - 0.0 - - - - - - -
25/11:30am 15.0 W 11 16 1015.5 - 0.0 - - - - - - -
25/11:00am 13.4 WSW 10 15 1015.7 - 0.0 - - - - - - -
25/10:30am 14.8 WNW 11 15 1016.0 - 0.0 - - - - - - -
25/10:00am 14.8 WNW 9 14 1016.1 - 0.0 - - - - - - -
25/09:30am 14.0 W 7 11 1016.1 - 0.0 - - - - - - -
25/09:00am 13.0 S 6 7 1016.0 - 0.2 - - - - - - -
25/08:30am 11.1 SW 15 18 1016.2 - 0.2 - - - - - - -
25/08:00am 10.9 W 9 11 1016.2 - 0.2 - - - - - - -
25/07:30am 10.2 W 11 19 1016.0 - 0.2 - - - - - - -
25/07:00am 9.2 SW 5 6 1015.5 - 0.2 - - - - - - -
25/06:30am 8.6 SW 7 8 1015.0 - 0.2 - - - - - - -
25/06:00am 8.1 SW 6 7 1014.5 - 0.2 - - - - - - -
25/05:30am 9.0 SW 4 6 1014.2 - 0.2 - - - - - - -
25/05:00am 8.4 SW 5 7 1014.0 - 0.2 - - - - - - -
25/04:30am 6.5 SSE 5 5 1013.4 - 0.2 - - - - - - -
25/04:00am 5.8 SW 5 6 1013.3 - 0.2 - - - - - - -
25/03:30am 6.6 WSW 8 10 1013.5 - 0.2 - - - - - - -
25/03:00am 7.6 WSW 7 11 1013.3 - 0.2 - - - - - - -
25/02:30am 6.8 SW 6 7 1013.2 - 0.2 - - - - - - -
25/02:00am 6.2 SW 7 8 1013.0 - 0.2 - - - - - - -
25/01:30am 6.7 SW 7 8 1013.2 - 0.2 - - - - - - -
25/01:00am 7.1 WSW 7 9 1013.5 - 0.2 - - - - - - -
25/12:30am 6.5 SSW 5 7 1013.6 - 0.2 - - - - - - -
25/12:00am 7.3 SSW 5 7 1013.5 - 0.2 - - - - - - -
 
Date/Time
CST
Temp
°C
Wind Pressure Rain since
9am
mm
Weather Cloud Vis
km
Sea
Height
m
Swell
Dir  Spd
kts
Gust
kts
hPa Trend Height
m
Period
s
Dir
24/11:30pm 6.7 WSW 7 8 1013.5 - 0.2 - - - - - - -
24/11:00pm 6.5 SW 7 8 1013.5 - 0.2 - - - - - - -
24/10:30pm 6.9 SW 6 8 1013.4 - 0.2 - - - - - - -
24/10:00pm 7.3 SW 8 9 1013.3 - 0.2 - - - - - - -
24/09:30pm 7.9 SW 8 11 1013.2 - 0.2 - - - - - - -
24/09:00pm 7.6 SW 7 8 1013.0 - 0.2 - - - - - - -
24/08:30pm 8.3 SW 8 10 1012.7 - 0.2 - - - - - - -
24/08:00pm 9.3 SW 10 12 1012.4 - 0.2 - - - - - - -
24/07:30pm 9.8 SW 11 15 1011.9 - 0.2 - - - - - - -
24/07:00pm 10.4 SW 11 15 1011.3 - 0.2 - - - - - - -
24/06:30pm 11.4 SW 12 16 1010.8 - 0.2 - - - - - - -
24/06:00pm 12.4 SW 15 19 1010.3 - 0.2 - - - - - - -
24/05:30pm 13.1 SW 15 24 1009.6 - 0.2 - - - - - - -
24/05:00pm 13.0 SW 15 21 1009.0 - 0.2 - - - - - - -
24/04:30pm 12.7 SW 11 18 1008.4 - 0.2 - - - - - - -
24/04:00pm 14.4 WSW 10 14 1007.9 - 0.2 - - - - - - -
24/03:30pm 14.6 SSW 14 19 1007.5 - 0.2 - - - - - - -
24/03:00pm 16.2 SSW 15 20 1007.1 - 0.2 - - - - - - -
24/02:46pm 14.7 SW 19 26 1006.9 - 0.2 - - - - - - -
24/02:30pm 16.4 W 17 24 1006.7 - 0.2 - - - - - - -
24/02:00pm 16.6 WSW 18 22 1006.5 - 0.2 - - - - - - -
24/01:30pm 16.2 W 19 23 1006.6 - 0.2 - - - - - - -
24/01:00pm 16.3 W 18 23 1006.7 - 0.0 - - - - - - -
24/12:30pm 16.6 WSW 15 20 1006.8 - 0.0 - - - - - - -
24/12:00pm 16.2 WSW 16 21 1006.8 - 0.0 - - - - - - -
24/11:30am 16.2 WSW 15 21 1006.6 - 0.0 - - - - - - -
24/11:00am 16.1 WSW 15 21 1006.5 - 0.0 - - - - - - -
24/10:30am 15.7 W 13 17 1006.4 - 0.0 - - - - - - -
24/10:00am 14.8 W 14 17 1006.4 - 0.0 - - - - - - -
24/09:30am 14.4 NW 11 14 1006.4 - 0.0 - - - - - - -
24/09:00am 15.0 NW 13 16 1006.2 - 0.0 - - - - - - -
24/08:30am 14.9 NNW 13 16 1006.2 - 0.0 - - - - - - -
24/08:00am 14.9 NW 13 19 1005.8 - 0.0 - - - - - - -
24/07:30am 14.1 NW 13 20 1005.6 - 0.0 - - - - - - -
24/07:00am 14.5 NNW 17 23 1005.3 - 0.0 - - - - - - -
24/06:30am 14.7 NNW 19 25 1005.1 - 0.0 - - - - - - -
24/06:00am 14.1 N 15 21 1004.5 - 0.0 - - - - - - -
24/05:30am 14.4 N 15 23 1004.3 - 0.0 - - - - - - -
24/05:00am 12.8 N 8 14 1003.6 - 0.0 - - - - - - -
24/04:30am 13.3 N 9 12 1003.1 - 0.0 - - - - - - -
24/04:00am 13.4 N 12 18 1003.3 - 0.0 - - - - - - -
24/03:30am 13.5 N 13 16 1002.9 - 0.0 - - - - - - -
24/03:00am 13.8 N 11 15 1003.5 - 0.0 - - - - - - -
24/02:30am 13.8 N 14 17 1003.4 - 0.0 - - - - - - -
24/02:00am 14.5 N 15 19 1004.0 - 0.0 - - - - - - -
24/01:30am 15.3 N 14 17 1004.1 - 0.0 - - - - - - -
24/01:00am 15.7 N 16 22 1004.6 - 0.0 - - - - - - -
24/12:30am 14.3 N 13 16 1005.1 - 0.0 - - - - - - -
24/12:00am 14.6 N 12 15 1005.0 - 0.0 - - - - - - -
 
Date/Time
CST
Temp
°C
Wind Pressure Rain since
9am
mm
Weather Cloud Vis
km
Sea
Height
m
Swell
Dir  Spd
kts
Gust
kts
hPa Trend Height
m
Period
s
Dir
23/11:30pm 14.4 NNE 13 17 1004.8 - 0.0 - - - - - - -
23/11:00pm 13.5 NNE 13 15 1005.1 - 0.0 - - - - - - -
23/10:30pm 14.0 NNE 13 17 1005.4 - 0.0 - - - - - - -
23/10:00pm 13.6 NNE 15 17 1005.7 - 0.0 - - - - - - -
23/09:30pm 13.1 NNE 13 15 1006.2 - 0.0 - - - - - - -
23/09:00pm 13.5 NE 13 16 1006.3 - 0.0 - - - - - - -
23/08:30pm 13.3 NE 14 17 1006.3 - 0.0 - - - - - - -
23/08:00pm 13.3 NE 14 17 1006.1 - 0.0 - - - - - - -
23/07:30pm 13.7 NE 14 16 1006.1 - 0.0 - - - - - - -
23/07:00pm 12.8 NE 12 13 1005.9 - 0.0 - - - - - - -
23/06:30pm 13.8 NE 12 14 1005.8 - 0.0 - - - - - - -
23/06:00pm 15.5 NE 10 12 1005.9 - 0.0 - - - - - - -
23/05:30pm 17.5 NE 10 13 1005.9 - 0.0 - - - - - - -
23/05:00pm 18.6 NNE 14 19 1005.9 - 0.0 - - - - - - -
23/04:30pm 19.2 NNE 15 19 1006.1 - 0.0 - - - - - - -
23/04:00pm 19.6 NNE 15 19 1006.5 - 0.0 - - - - - - -
23/03:30pm 20.0 N 13 17 1006.8 - 0.0 - - - - - - -
23/03:00pm 20.2 N 13 21 1007.4 - 0.0 - - - - - - -
23/02:30pm 20.2 N 14 20 1007.6 - 0.0 - - - - - - -
23/02:00pm 20.2 N 15 19 1008.0 - 0.0 - - - - - - -
23/01:30pm 20.1 N 14 20 1008.6 - 0.0 - - - - - - -
23/01:00pm 20.0 N 13 19 1009.2 - 0.0 - - - - - - -
23/12:30pm 19.0 N 16 21 1009.8 - 0.0 - - - - - - -
23/12:00pm 18.8 N 17 22 1010.1 - 0.0 - - - - - - -
23/11:30am 18.1 N 17 24 1010.5 - 0.0 - - - - - - -
23/11:00am 17.9 NNW 14 20 1011.2 - 0.0 - - - - - - -
23/10:30am 16.5 NNW 17 22 1011.9 - 0.0 - - - - - - -
23/10:00am 16.5 N 17 22 1012.3 - 0.0 - - - - - - -
23/09:30am 15.6 N 16 22 1012.6 - 0.0 - - - - - - -
23/09:00am 14.6 N 14 21 1012.9 - 0.0 - - - - - - -
23/08:30am 13.2 N 13 17 1013.1 - 0.0 - - - - - - -
23/08:00am 11.4 NNE 12 16 1013.1 - 0.0 - - - - - - -
23/07:30am 10.0 NE 15 19 1012.9 - 0.0 - - - - - - -
23/07:00am 8.1 NE 14 19 1013.5 - 0.0 - - - - - - -
23/06:30am 7.0 NE 14 19 1013.6 - 0.0 - - - - - - -
23/06:00am 6.6 NE 15 17 1013.8 - 0.0 - - - - - - -
23/05:30am 6.6 NE 13 17 1014.0 - 0.0 - - - - - - -
23/05:00am 6.4 ENE 12 15 1014.2 - 0.0 - - - - - - -
23/04:30am 7.0 NE 12 15 1014.4 - 0.0 - - - - - - -
23/04:00am 6.5 ENE 12 14 1014.7 - 0.0 - - - - - - -
23/03:30am 6.5 ENE 12 15 1015.0 - 0.0 - - - - - - -
23/03:00am 6.6 ENE 11 12 1015.6 - 0.0 - - - - - - -
23/02:30am 6.3 ENE 11 14 1015.9 - 0.0 - - - - - - -
23/02:00am 6.5 ENE 11 12 1015.9 - 0.0 - - - - - - -
23/01:30am 6.4 ENE 10 12 1016.2 - 0.0 - - - - - - -
23/01:00am 5.5 ENE 11 14 1016.5 - 0.0 - - - - - - -
23/12:30am 5.3 ENE 11 13 1016.9 - 0.0 - - - - - - -
23/12:00am 4.8 ENE 10 11 1017.3 - 0.0 - - - - - - -
 
Date/Time
CST
Temp
°C
Wind Pressure Rain since
9am
mm
Weather Cloud Vis
km
Sea
Height
m
Swell
Dir  Spd
kts
Gust
kts
hPa Trend Height
m
Period
s
Dir
22/11:30pm 4.5 E 10 11 1017.5 - 0.0 - - - - - - -
22/11:00pm 4.8 E 10 11 1017.7 - 0.0 - - - - - - -
22/10:30pm 4.7 E 9 10 1018.0 - 0.0 - - - - - - -
22/10:00pm 5.1 E 10 11 1018.1 - 0.0 - - - - - - -
22/09:30pm 5.5 E 10 11 1018.6 - 0.0 - - - - - - -
22/09:00pm 5.7 E 10 11 1018.9 - 0.0 - - - - - - -
22/08:30pm 6.2 E 10 11 1019.2 - 0.0 - - - - - - -
22/08:00pm 6.9 ESE 10 11 1019.2 - 0.0 - - - - - - -
22/07:30pm 7.2 E 6 8 1019.4 - 0.0 - - - - - - -
22/07:00pm 10.4 E 5 7 1019.3 - 0.0 - - - - - - -
22/06:30pm 11.3 ENE 5 6 1019.4 - 0.0 - - - - - - -
22/06:00pm 11.7 SSW 2 4 1019.7 - 0.0 - - - - - - -
22/05:30pm 12.2 CALM 0 3 1019.5 - 0.0 - - - - - - -
22/05:00pm 12.2 WSW 4 6 1019.3 - 0.0 - - - - - - -
22/04:30pm 12.4 SW 5 6 1019.3 - 0.0 - - - - - - -
22/04:00pm 12.6 WSW 6 8 1019.3 - 0.0 - - - - - - -
22/03:30pm 13.3 WSW 5 7 1019.5 - 0.0 - - - - - - -
22/03:00pm 13.6 W 7 9 1019.5 - 0.0 - - - - - - -
22/02:30pm 13.8 NNE 3 6 1019.6 - 0.0 - - - - - - -
22/02:00pm 13.5 WSW 6 8 1020.1 - 0.0 - - - - - - -
22/01:30pm 13.7 W 5 9 1020.1 - 0.0 - - - - - - -

Other Formats:

Comma delimited format used in spreadsheet applications
http://www.bom.gov.au/fwo/IDS60701/IDS60701.95659.axf

JavaScript Object Notation format (JSON) in row-major order
http://www.bom.gov.au/fwo/IDS60701/IDS60701.95659.json